Time;durP1;ratioP1;P1;durP2;ratioP2;P2;SDS_P1;SDS_P2;PMS_P1;PMS_P2;Temp;Humidity;BMP_temperature;BMP_pressure;BME280_temperature;BME280_humidity;BME280_pressure;Samples;Min_cycle;Max_cycle;Signal;HPM_P1;HPM_P2
2022/06/24 00:00:13;;;;;;;5.57;2.00;;;;;;;15.05;61.14;100315.11;1417687;90;21382;-81
2022/06/24 00:02:40;;;;;;;2.70;1.82;;;;;;;14.99;60.95;100317.14;1438099;91;21581;-81
2022/06/24 00:05:11;;;;;;;3.90;2.60;;;;;;;14.93;61.20;100316.02;1433330;91;22402;-82
2022/06/24 00:07:46;;;;;;;;;;;;;;;14.87;61.13;100316.25;1430463;91;22406;-82
2022/06/24 00:10:16;;;;;;;4.10;2.30;;;;;;;14.84;61.71;100308.59;1424574;89;20957;-81
2022/06/24 00:12:46;;;;;;;3.50;1.95;;;;;;;14.84;61.80;100311.76;1437403;90;21495;-80
2022/06/24 00:15:13;;;;;;;4.30;2.10;;;;;;;14.82;62.18;100307.95;1418525;90;21377;-82
2022/06/24 00:17:39;;;;;;;2.73;2.13;;;;;;;14.83;62.82;100304.28;1411422;92;21459;-82
2022/06/24 00:20:08;;;;;;;5.43;2.20;;;;;;;14.80;63.00;100310.47;1416546;92;21444;-82
2022/06/24 00:22:47;;;;;;;3.83;2.10;;;;;;;14.77;62.39;100306.33;1411973;92;21518;-82
2022/06/24 00:25:22;;;;;;;7.67;2.53;;;;;;;14.73;62.57;100305.03;1423093;92;21422;-82
2022/06/24 00:28:09;;;;;;;3.90;2.03;;;;;;;14.72;62.92;100310.02;1422065;92;22471;-82
2022/06/24 00:30:43;;;;;;;3.50;2.00;;;;;;;14.64;63.44;100310.07;1414601;92;21392;-82
2022/06/24 00:33:20;;;;;;;5.90;2.33;;;;;;;14.56;63.01;100311.48;1407907;92;21400;-81
2022/06/24 00:35:56;;;;;;;3.00;2.07;;;;;;;14.50;64.51;100312.98;1409620;92;21466;-81
2022/06/24 00:38:30;;;;;;;9.13;2.57;;;;;;;14.45;63.71;100308.17;1387343;94;21509;-82
2022/06/24 00:41:12;;;;;;;4.03;1.90;;;;;;;14.42;63.50;100308.52;1409400;92;22065;-81
2022/06/24 00:43:44;;;;;;;4.37;2.63;;;;;;;14.38;64.35;100315.18;1406789;93;22405;-81
2022/06/24 00:46:27;;;;;;;3.33;1.83;;;;;;;14.36;64.46;100311.89;1408826;93;21415;-82
2022/06/24 00:48:59;;;;;;;3.27;2.00;;;;;;;14.37;64.86;100316.70;1405264;92;21437;-82
2022/06/24 00:51:38;;;;;;;3.60;2.03;;;;;;;14.34;64.67;100318.39;1405828;93;21592;-82
2022/06/24 00:54:11;;;;;;;5.90;2.20;;;;;;;14.34;64.74;100321.87;1403408;93;23468;-81
2022/06/24 00:56:38;;;;;;;3.43;2.27;;;;;;;14.34;64.36;100319.72;1410713;92;21614;-81
2022/06/24 00:59:09;;;;;;;3.80;2.00;;;;;;;14.28;65.60;100317.76;1404844;93;23548;-81
2022/06/24 01:01:38;;;;;;;4.27;2.60;;;;;;;14.19;65.36;100319.63;1403229;93;21468;-81
2022/06/24 01:04:08;;;;;;;4.30;2.70;;;;;;;14.12;64.88;100315.98;1409793;93;23290;-82
2022/06/24 01:06:37;;;;;;;3.53;2.60;;;;;;;14.08;65.07;100317.35;1404268;93;22529;-82
2022/06/24 01:09:03;;;;;;;5.03;2.27;;;;;;;14.03;65.25;100314.38;1407514;93;22638;-81
2022/06/24 01:11:40;;;;;;;6.10;2.40;;;;;;;13.98;66.04;100309.08;1406185;93;21392;-81
2022/06/24 01:14:07;;;;;;;9.10;2.93;;;;;;;13.91;67.46;100308.60;1408348;92;21476;-81
2022/06/24 01:16:34;;;;;;;3.97;2.30;;;;;;;13.86;66.89;100311.77;1401563;93;21378;-81
2022/06/24 01:19:05;;;;;;;3.53;2.20;;;;;;;13.86;66.51;100313.09;1404697;93;21386;-81
2022/06/24 01:21:40;;;;;;;5.60;2.27;;;;;;;13.88;66.32;100311.10;1401869;93;21445;-81
2022/06/24 01:24:18;;;;;;;9.80;2.23;;;;;;;13.86;66.99;100303.78;1403613;93;22676;-81
2022/06/24 01:26:56;;;;;;;10.00;2.40;;;;;;;13.85;66.55;100307.45;1403083;93;22465;-81
2022/06/24 01:29:25;;;;;;;3.77;2.33;;;;;;;13.83;66.19;100305.45;1401037;93;22369;-81
2022/06/24 01:31:53;;;;;;;5.17;2.40;;;;;;;13.79;66.33;100300.17;1403028;93;22303;-81
2022/06/24 01:34:23;;;;;;;3.97;2.67;;;;;;;13.78;66.87;100305.14;1392795;93;21438;-81
2022/06/24 01:36:53;;;;;;;4.70;2.53;;;;;;;13.78;67.30;100310.45;1409830;93;21437;-81
2022/06/24 01:39:20;;;;;;;3.33;2.05;;;;;;;13.78;66.76;100317.11;1396693;93;21540;-81
2022/06/24 01:41:49;;;;;;;3.80;2.60;;;;;;;13.63;67.32;100309.01;1400571;93;21511;-81
2022/06/24 01:44:15;;;;;;;3.20;2.13;;;;;;;13.57;66.81;100309.69;1404758;93;21512;-81
2022/06/24 01:46:41;;;;;;;5.27;2.40;;;;;;;13.49;67.41;100311.89;1402052;93;21363;-81
2022/06/24 01:49:08;;;;;;;7.00;2.70;;;;;;;13.43;67.65;100317.86;1400160;93;22548;-80
2022/06/24 01:51:38;;;;;;;5.63;2.87;;;;;;;13.36;68.48;100316.89;1408886;93;21625;-80
2022/06/24 01:54:05;;;;;;;3.12;2.35;;;;;;;13.25;69.51;100315.39;1402840;93;21349;-80
2022/06/24 01:56:31;;;;;;;3.00;2.17;;;;;;;13.19;69.47;100309.39;1404984;93;21482;-81
2022/06/24 01:58:57;;;;;;;3.63;2.10;;;;;;;13.17;69.31;100307.90;1404420;93;21364;-81
2022/06/24 02:01:24;;;;;;;3.93;2.07;;;;;;;13.19;69.41;100311.23;1407368;93;21482;-81
2022/06/24 02:03:50;;;;;;;3.23;2.40;;;;;;;13.16;70.54;100310.23;1404147;93;22406;-81
2022/06/24 02:06:20;;;;;;;4.53;2.70;;;;;;;13.14;70.44;100304.25;1404064;92;21431;-81
2022/06/24 02:08:47;;;;;;;3.47;2.27;;;;;;;13.16;69.46;100304.92;1409553;92;22523;-81
2022/06/24 02:14:09;;;;;;;3.80;2.60;;;;;;;13.22;69.46;100304.24;1412895;91;21467;-81
2022/06/24 02:16:37;;;;;;;3.50;2.37;;;;;;;13.20;69.78;100306.23;1420465;92;21445;-81
2022/06/24 02:19:03;;;;;;;5.47;2.27;;;;;;;13.19;68.70;100299.27;1405416;92;21496;-82
2022/06/24 02:21:29;;;;;;;2.53;2.03;;;;;;;13.17;69.04;100295.94;1417286;92;22766;-81
2022/06/24 02:23:55;;;;;;;4.53;2.60;;;;;;;13.16;69.44;100298.28;1406617;92;21562;-81
2022/06/24 02:26:22;;;;;;;7.33;2.30;;;;;;;13.12;70.75;100300.92;1419986;92;21629;-81
2022/06/24 02:28:48;;;;;;;3.93;2.63;;;;;;;13.09;70.64;100296.80;1405912;92;21634;-81
2022/06/24 02:31:15;;;;;;;4.80;2.57;;;;;;;13.08;70.65;100299.92;1415139;92;23832;-81
2022/06/24 02:33:41;;;;;;;5.33;2.37;;;;;;;13.10;69.96;100304.58;1425453;92;21633;-81
2022/06/24 02:36:08;;;;;;;4.40;2.60;;;;;;;13.12;69.54;100304.91;1410041;92;21585;-81
2022/06/24 02:38:34;;;;;;;3.67;2.43;;;;;;;13.13;69.24;100303.92;1404897;92;22392;-81
2022/06/24 02:41:01;;;;;;;5.33;2.43;;;;;;;13.12;69.54;100304.43;1416443;92;21548;-81
2022/06/24 02:43:32;;;;;;;5.30;2.57;;;;;;;13.08;69.76;100309.22;1405679;92;21943;-81
2022/06/24 02:46:00;;;;;;;;;;;;;;;13.07;70.52;100307.58;1419289;92;21459;-81
2022/06/24 02:48:28;;;;;;;4.00;2.10;;;;;;;13.03;71.15;100307.59;1416320;91;20316;-81
2022/06/24 02:50:58;;;;;;;4.83;2.93;;;;;;;12.99;70.91;100312.88;1415705;92;21541;-81
2022/06/24 02:53:26;;;;;;;5.90;2.40;;;;;;;12.87;71.37;100312.89;1421022;92;21443;-82
2022/06/24 02:55:55;;;;;;;12.37;3.50;;;;;;;12.85;70.09;100317.02;1408599;92;21614;-81
2022/06/24 02:58:22;;;;;;;8.60;3.03;;;;;;;12.83;70.05;100312.87;1407272;92;21673;-81
2022/06/24 03:00:48;;;;;;;3.10;2.10;;;;;;;12.83;69.72;100315.52;1416821;92;22420;-81
2022/06/24 03:03:19;;;;;;;3.53;2.83;;;;;;;12.82;70.45;100315.20;1416947;92;21651;-81
2022/06/24 03:05:45;;;;;;;7.08;2.60;;;;;;;12.83;70.42;100312.87;1415660;92;21585;-81
2022/06/24 03:08:14;;;;;;;3.00;2.33;;;;;;;12.82;70.91;100311.22;1413263;92;21548;-82
2022/06/24 03:10:42;;;;;;;2.60;2.10;;;;;;;12.83;70.91;100313.73;1411914;92;21385;-81
2022/06/24 03:13:09;;;;;;;3.87;2.60;;;;;;;12.88;70.81;100318.52;1421785;92;21430;-81
2022/06/24 03:15:35;;;;;;;6.67;2.60;;;;;;;12.93;70.99;100321.52;1408233;92;21386;-81
2022/06/24 03:18:01;;;;;;;5.83;2.70;;;;;;;13.00;71.58;100326.48;1414468;92;21481;-81
2022/06/24 03:20:29;;;;;;;4.47;2.47;;;;;;;13.02;71.44;100325.83;1417556;92;21983;-81
2022/06/24 03:22:56;;;;;;;4.50;2.10;;;;;;;13.05;70.51;100328.66;1414521;92;21378;-82
2022/06/24 03:25:22;;;;;;;3.50;2.17;;;;;;;13.08;70.66;100329.16;1411355;92;21452;-82
2022/06/24 03:27:49;;;;;;;8.67;3.57;;;;;;;13.15;70.29;100329.34;1412152;92;21600;-82
2022/06/24 03:30:16;;;;;;;3.63;2.47;;;;;;;13.18;70.23;100334.32;1408946;92;23451;-81
2022/06/24 03:32:42;;;;;;;114.43;8.87;;;;;;;13.23;70.24;100329.81;1410045;92;23545;-82
2022/06/24 03:35:10;;;;;;;36.40;5.07;;;;;;;13.28;70.04;100333.66;1418712;92;21658;-82
2022/06/24 03:37:36;;;;;;;47.37;3.53;;;;;;;13.37;70.54;100330.50;1411891;92;22347;-82
2022/06/24 03:40:04;;;;;;;16.73;3.13;;;;;;;13.45;70.54;100331.82;1412126;92;21371;-81
2022/06/24 03:42:30;;;;;;;4.07;2.77;;;;;;;13.54;70.23;100333.97;1395309;93;21453;-81
2022/06/24 03:44:57;;;;;;;4.80;2.97;;;;;;;13.63;69.83;100334.78;1397618;94;21336;-81
2022/06/24 03:47:24;;;;;;;5.87;2.43;;;;;;;13.68;69.82;100335.93;1423232;91;21415;-82
2022/06/24 03:49:53;;;;;;;6.73;3.10;;;;;;;13.75;69.28;100341.39;1408730;92;22019;-81
2022/06/24 03:52:19;;;;;;;4.47;2.37;;;;;;;13.82;69.18;100343.71;1412569;92;21549;-81
2022/06/24 03:54:45;;;;;;;2.57;2.20;;;;;;;13.88;68.67;100339.54;1420152;92;21533;-81
2022/06/24 03:57:12;;;;;;;5.80;2.77;;;;;;;13.95;68.10;100349.34;1406933;92;21333;-81
2022/06/24 03:59:38;;;;;;;5.20;3.07;;;;;;;14.03;68.23;100347.12;1426254;92;21644;-81
2022/06/24 04:02:04;;;;;;;4.17;2.40;;;;;;;14.10;68.42;100345.96;1405619;92;21444;-81
2022/06/24 04:04:30;;;;;;;6.80;2.50;;;;;;;14.20;68.42;100352.72;1414112;92;21555;-81
2022/06/24 04:06:56;;;;;;;4.90;2.67;;;;;;;14.29;68.23;100345.52;1419816;91;22235;-81
2022/06/24 04:09:22;;;;;;;4.43;2.53;;;;;;;14.41;67.96;100343.30;1415884;92;21467;-81
2022/06/24 04:11:49;;;;;;;6.90;2.37;;;;;;;14.51;68.08;100353.75;1425561;92;21451;-81
2022/06/24 04:15:13;;;;;;;12.60;3.40;;;;;;;14.62;67.43;100349.39;1415284;92;21430;-82
2022/06/24 04:16:43;;;;;;;6.30;3.60;;;;;;;14.71;67.58;100344.84;1409304;92;21444;-81
2022/06/24 04:19:09;;;;;;;6.03;3.07;;;;;;;14.78;67.55;100341.27;1405142;92;21408;-81
2022/06/24 04:21:35;;;;;;;23.50;3.67;;;;;;;14.87;67.40;100348.23;1416434;92;21437;-81
2022/06/24 04:24:01;;;;;;;14.60;3.20;;;;;;;14.95;67.25;100346.50;1408386;92;21415;-81
2022/06/24 04:26:27;;;;;;;7.67;3.87;;;;;;;15.03;66.96;100347.77;1400925;93;21497;-81
2022/06/24 04:28:53;;;;;;;6.83;3.33;;;;;;;15.14;66.87;100353.19;1417091;92;22642;-81
2022/06/24 04:31:19;;;;;;;8.83;2.80;;;;;;;15.26;66.89;100351.75;1400333;92;21534;-81
2022/06/24 04:33:45;;;;;;;2.83;2.53;;;;;;;15.41;67.01;100356.60;1408004;92;22295;-81
2022/06/24 04:36:15;;;;;;;6.40;3.00;;;;;;;15.56;66.71;100359.29;1400058;92;21675;-82
2022/06/24 04:38:42;;;;;;;3.90;2.53;;;;;;;15.72;66.21;100356.50;1399872;93;21527;-81
2022/06/24 04:41:16;;;;;;;8.20;3.30;;;;;;;15.87;64.91;100359.69;1411056;92;21712;-81
2022/06/24 04:43:43;;;;;;;5.40;2.83;;;;;;;16.03;64.93;100359.51;1381177;94;21437;-81
2022/06/24 04:46:09;;;;;;;6.90;3.40;;;;;;;16.19;64.64;100354.47;1402390;93;21334;-81
2022/06/24 04:48:36;;;;;;;11.03;2.70;;;;;;;16.31;64.00;100352.14;1408334;93;22450;-81
2022/06/24 04:51:04;;;;;;;5.73;2.80;;;;;;;16.46;63.79;100355.63;1403154;93;21327;-81
2022/06/24 04:53:31;;;;;;;13.73;3.50;;;;;;;16.61;63.50;100356.41;1408561;93;21541;-81
2022/06/24 04:55:58;;;;;;;8.13;3.17;;;;;;;16.76;63.01;100360.89;1411700;93;21364;-81
2022/06/24 04:58:24;;;;;;;5.40;2.87;;;;;;;16.87;62.43;100353.22;1409616;93;22472;-82
2022/06/24 05:00:51;;;;;;;5.73;2.47;;;;;;;17.00;61.22;100356.52;1400798;93;21408;-81
2022/06/24 05:03:17;;;;;;;8.83;2.80;;;;;;;17.12;61.36;100352.34;1400556;93;22790;-81
2022/06/24 05:05:43;;;;;;;5.87;2.73;;;;;;;17.25;60.99;100345.44;1399929;93;21870;-81
2022/06/24 05:08:09;;;;;;;7.83;2.80;;;;;;;17.37;60.78;100347.89;1403675;93;22854;-81
2022/06/24 05:10:35;;;;;;;7.23;2.60;;;;;;;17.46;59.87;100347.24;1402945;93;21393;-82
2022/06/24 05:13:01;;;;;;;3.50;2.50;;;;;;;17.56;58.33;100345.89;1403202;93;21357;-82
2022/06/24 05:15:27;;;;;;;162.80;10.47;;;;;;;17.69;59.63;100347.81;1400848;93;21349;-81
2022/06/24 05:17:53;;;;;;;6.40;2.80;;;;;;;17.78;58.72;100349.85;1406376;92;22464;-81
2022/06/24 05:20:20;;;;;;;7.50;3.03;;;;;;;17.89;58.50;100347.14;1408763;93;21401;-80
2022/06/24 05:22:46;;;;;;;9.57;3.10;;;;;;;18.02;58.64;100350.73;1408667;93;21445;-81
2022/06/24 05:25:12;;;;;;;8.70;2.80;;;;;;;18.11;56.21;100354.06;1407331;93;21341;-80
2022/06/24 05:27:38;;;;;;;15.47;3.80;;;;;;;18.24;57.23;100349.27;1406413;93;21437;-80
2022/06/24 05:30:06;;;;;;;16.87;3.10;;;;;;;18.37;57.05;100356.03;1406387;93;22350;-80
2022/06/24 05:32:32;;;;;;;11.30;2.87;;;;;;;18.51;56.83;100357.44;1394063;93;21393;-81
2022/06/24 05:34:58;;;;;;;7.53;2.70;;;;;;;18.64;56.66;100360.13;1409913;91;22450;-81
2022/06/24 05:37:26;;;;;;;8.53;2.67;;;;;;;18.80;56.33;100362.48;1397214;92;21446;-81
2022/06/24 05:39:52;;;;;;;13.33;3.37;;;;;;;18.93;55.77;100359.84;1403926;93;21438;-81
2022/06/24 05:42:18;;;;;;;9.85;2.70;;;;;;;19.08;55.20;100367.69;1404766;93;21408;-81
2022/06/24 05:44:44;;;;;;;6.90;2.27;;;;;;;19.23;54.88;100362.13;1408700;93;21379;-80
2022/06/24 05:47:10;;;;;;;4.30;2.93;;;;;;;19.35;54.18;100365.84;1401467;93;21505;-80
2022/06/24 05:49:36;;;;;;;5.90;2.63;;;;;;;19.53;54.12;100365.73;1401444;93;23304;-81
2022/06/24 05:52:03;;;;;;;26.97;2.80;;;;;;;19.64;52.93;100360.25;1405037;93;21364;-80
2022/06/24 05:57:14;;;;;;;10.07;3.10;;;;;;;19.91;52.32;100361.05;1399183;93;21327;-81
2022/06/24 05:59:40;;;;;;;19.37;3.37;;;;;;;20.08;52.06;100359.55;1400807;93;21415;-81
2022/06/24 06:02:07;;;;;;;10.73;2.37;;;;;;;20.25;52.28;100367.97;1401024;93;21467;-81
2022/06/24 06:04:33;;;;;;;4.47;2.37;;;;;;;20.41;51.94;100364.81;1405695;93;21453;-82
2022/06/24 06:06:59;;;;;;;5.85;2.60;;;;;;;20.46;49.68;100366.88;1334918;93;21262;-81
2022/06/24 06:09:26;;;;;;;7.90;2.70;;;;;;;20.63;50.89;100362.67;1360805;93;21415;-80
2022/06/24 06:11:52;;;;;;;12.33;3.17;;;;;;;20.83;51.04;100369.78;1394317;93;21431;-80
2022/06/24 06:14:18;;;;;;;7.15;3.15;;;;;;;20.92;49.89;100368.52;1410403;91;21466;-81
2022/06/24 06:16:47;;;;;;;4.25;2.40;;;;;;;21.03;49.66;100365.13;1403030;91;21437;-81
2022/06/24 06:19:12;;;;;;;5.10;3.12;;;;;;;21.14;49.81;100364.92;1411548;91;22085;-80
2022/06/24 06:21:38;;;;;;;8.58;2.50;;;;;;;21.26;49.46;100370.42;1401304;92;22540;-80
2022/06/24 06:24:05;;;;;;;10.38;2.90;;;;;;;21.38;49.39;100372.76;1397237;93;21505;-80
2022/06/24 06:26:31;;;;;;;6.92;2.72;;;;;;;21.48;48.17;100374.94;1402833;93;21408;-81
2022/06/24 06:28:57;;;;;;;5.70;2.35;;;;;;;21.63;49.03;100374.88;1402840;93;21393;-79
2022/06/24 06:31:23;;;;;;;6.75;2.72;;;;;;;21.75;48.86;100375.50;1399294;93;21438;-80
2022/06/24 06:33:49;;;;;;;21.23;3.50;;;;;;;21.82;46.74;100376.28;1405336;93;21491;-80
2022/06/24 06:36:16;;;;;;;4.60;2.37;;;;;;;21.94;48.11;100373.14;1411575;93;21446;-80
2022/06/24 06:38:42;;;;;;;9.63;2.47;;;;;;;22.07;48.12;100373.00;1402247;93;21320;-80
2022/06/24 06:41:08;;;;;;;6.75;2.70;;;;;;;22.17;46.86;100373.00;1404339;93;21566;-80
2022/06/24 06:43:35;;;;;;;12.23;2.65;;;;;;;22.07;45.95;100375.70;1399417;93;21437;-80
2022/06/24 06:46:01;;;;;;;5.53;2.50;;;;;;;22.23;46.83;100373.47;1408107;92;21408;-80
2022/06/24 06:48:27;;;;;;;3.67;2.10;;;;;;;22.37;46.87;100372.27;1401975;92;21386;-86
2022/06/24 06:50:59;;;;;;;4.80;2.22;;;;;;;22.56;46.80;100377.61;1409683;92;21386;-89
2022/06/24 06:53:27;;;;;;;4.92;2.45;;;;;;;22.63;45.65;100371.63;1415545;91;21594;-89
2022/06/24 06:55:54;;;;;;;6.08;1.92;;;;;;;22.74;45.21;100370.31;1404449;93;21660;-88
2022/06/24 06:58:24;;;;;;;6.92;2.42;;;;;;;22.90;44.98;100371.55;1419943;92;21290;-88
2022/06/24 07:00:51;;;;;;;8.05;2.22;;;;;;;23.03;44.56;100373.78;1446744;92;21400;-89
2022/06/24 07:03:17;;;;;;;6.22;2.50;;;;;;;23.06;44.01;100358.48;1355219;92;22531;-86
2022/06/24 07:05:44;;;;;;;6.03;2.30;;;;;;;23.06;44.01;100358.48;1456736;92;21298;-87
2022/06/24 07:08:11;;;;;;;3.92;2.50;;;;;;;23.17;44.30;100360.38;1335688;93;21283;-86
2022/06/24 07:10:41;;;;;;;5.75;2.75;;;;;;;23.33;43.46;100363.75;1334615;93;21224;-87
2022/06/24 07:13:07;;;;;;;;;;;;;;;23.47;43.61;100366.21;1344228;93;22238;-87
2022/06/24 07:15:34;;;;;;;8.48;2.45;;;;;;;23.56;42.58;100368.85;1405586;92;20311;-86
2022/06/24 07:18:00;;;;;;;5.55;2.47;;;;;;;23.71;43.39;100372.46;1405570;93;22436;-86
2022/06/24 07:20:27;;;;;;;9.00;2.80;;;;;;;23.90;43.10;100373.17;1389363;93;21565;-87
2022/06/24 07:22:53;;;;;;;4.83;2.10;;;;;;;24.03;42.77;100367.52;1404530;93;21638;-87
2022/06/24 07:25:19;;;;;;;5.20;2.30;;;;;;;24.16;42.01;100372.64;1406434;93;21402;-87
2022/06/24 07:27:45;;;;;;;7.03;2.27;;;;;;;24.26;41.93;100370.16;1408637;93;21557;-87
2022/06/24 07:30:12;;;;;;;6.37;2.20;;;;;;;24.37;41.93;100362.23;1406956;93;21372;-88
2022/06/24 07:32:39;;;;;;;6.08;2.22;;;;;;;24.53;41.85;100366.92;1402260;93;21416;-88
2022/06/24 07:35:06;;;;;;;2.85;1.90;;;;;;;24.64;41.74;100363.36;1393200;93;22406;-86
2022/06/24 07:37:32;;;;;;;13.78;3.10;;;;;;;24.55;39.25;100359.40;1405328;93;21533;-87
2022/06/24 07:39:59;;;;;;;5.20;2.60;;;;;;;24.60;40.28;100359.50;1414224;93;21379;-87
2022/06/24 07:42:25;;;;;;;6.58;2.40;;;;;;;24.56;39.16;100360.22;1409306;93;21526;-88
2022/06/24 07:44:51;;;;;;;7.05;2.47;;;;;;;24.65;40.32;100360.92;1404133;93;21445;-88
2022/06/24 07:47:17;;;;;;;8.38;2.17;;;;;;;24.80;40.36;100352.80;1403737;93;22309;-88
2022/06/24 07:49:43;;;;;;;5.87;2.30;;;;;;;25.00;40.26;100353.16;1413405;93;22344;-88
2022/06/24 07:52:10;;;;;;;6.53;2.42;;;;;;;25.13;39.85;100356.91;1402908;93;23505;-87
2022/06/24 07:54:38;;;;;;;4.67;2.40;;;;;;;25.09;38.61;100357.12;1398978;93;21386;-88
2022/06/24 07:57:05;;;;;;;7.40;2.70;;;;;;;25.17;38.66;100349.95;1410794;93;21385;-88
2022/06/24 07:59:35;;;;;;;3.10;2.50;;;;;;;25.21;38.37;100353.83;1403516;93;22436;-88
2022/06/24 08:02:04;;;;;;;;;;;;;;;25.34;37.76;100345.89;1406499;93;21563;-88
2022/06/24 08:04:30;;;;;;;7.08;3.22;;;;;;;25.38;38.46;100342.17;1404688;92;20429;-88
2022/06/24 08:06:57;;;;;;;9.58;2.72;;;;;;;25.54;38.35;100344.03;1406313;93;22360;-88
2022/06/24 08:09:27;;;;;;;5.78;2.22;;;;;;;25.64;38.00;100344.19;1403169;93;21379;-88
2022/06/24 08:11:54;;;;;;;7.08;2.75;;;;;;;25.81;37.96;100341.98;1405058;92;21408;-88
2022/06/24 08:14:21;;;;;;;2.40;1.80;;;;;;;25.95;37.37;100337.02;1380234;92;21425;-85
2022/06/24 08:16:47;;;;;;;5.08;2.40;;;;;;;26.02;37.51;100330.35;1393098;93;21354;-89
2022/06/24 08:19:14;;;;;;;3.65;2.27;;;;;;;26.09;37.28;100332.32;1426158;91;21405;-89
2022/06/24 08:21:43;;;;;;;7.05;1.67;;;;;;;26.22;37.05;100333.03;1331528;93;21341;-92
2022/06/24 08:24:10;;;;;;;10.65;3.37;;;;;;;26.31;36.93;100326.08;1352777;94;21311;-90
2022/06/24 08:26:36;;;;;;;9.33;2.35;;;;;;;26.41;36.96;100326.17;1325148;94;22229;-92
2022/06/24 08:29:02;;;;;;;4.22;2.27;;;;;;;26.50;36.57;100319.27;1411463;91;21430;-91
2022/06/24 08:31:29;;;;;;;11.08;2.65;;;;;;;26.45;36.07;100319.18;1410382;92;21422;-93
2022/06/24 08:33:55;;;;;;;9.48;2.52;;;;;;;26.46;36.57;100315.38;1413751;92;21452;-89
2022/06/24 08:36:26;;;;;;;7.45;2.77;;;;;;;26.59;36.67;100305.25;1409910;92;21498;-87
2022/06/24 08:38:49;;;;;;;4.50;2.75;;;;;;;26.56;36.55;100299.80;1408047;92;21503;-87
2022/06/24 08:41:23;;;;;;;3.27;2.20;;;;;;;26.67;35.62;100313.74;1417944;92;23297;-87
2022/06/24 08:43:54;;;;;;;5.50;2.40;;;;;;;26.74;35.65;100309.45;1406458;92;21468;-85
2022/06/24 08:46:21;;;;;;;6.25;1.80;;;;;;;26.78;35.55;100302.42;1405261;93;21697;-87
2022/06/24 08:48:49;;;;;;;6.72;2.02;;;;;;;26.93;35.70;100308.00;1406538;93;21475;-91
2022/06/24 08:51:16;;;;;;;80.60;6.85;;;;;;;27.14;35.55;100300.83;1449479;92;21434;-93
2022/06/24 08:53:45;;;;;;;4.67;2.37;;;;;;;27.17;34.83;100304.95;1335998;93;21455;-92
2022/06/24 08:56:11;;;;;;;2.62;1.87;;;;;;;27.21;33.61;100299.27;1322212;95;21425;-92
2022/06/24 08:58:39;;;;;;;10.15;1.98;;;;;;;27.34;34.63;100301.54;1364239;93;21462;-82
2022/06/24 09:01:05;;;;;;;7.80;1.70;;;;;;;27.53;34.63;100291.58;1327488;92;21428;-85
2022/06/24 09:03:31;;;;;;;7.87;1.98;;;;;;;27.58;34.24;100292.98;1340155;92;22385;-86
2022/06/24 09:05:57;;;;;;;2.80;1.62;;;;;;;27.72;34.30;100287.34;1349805;92;21305;-86
2022/06/24 09:08:33;;;;;;;6.03;1.92;;;;;;;27.83;34.01;100293.14;1479218;92;22726;-85
2022/06/24 09:11:07;;;;;;;9.60;1.80;;;;;;;27.96;33.81;100286.38;1438078;91;21338;-86
2022/06/24 09:13:56;;;;;;;2.95;1.75;;;;;;;28.05;32.43;100285.31;1428655;91;22286;-87
2022/06/24 09:16:26;;;;;;;9.15;2.15;;;;;;;27.99;32.46;100281.77;1371013;91;21296;-87
2022/06/24 09:18:58;;;;;;;5.55;1.62;;;;;;;28.04;32.42;100283.69;1391828;92;21490;-88
2022/06/24 09:21:28;;;;;;;3.22;1.85;;;;;;;28.10;32.52;100283.43;1481710;93;21225;-86
2022/06/24 09:24:03;;;;;;;5.53;1.67;;;;;;;28.18;32.43;100279.38;1463620;93;21528;-89
2022/06/24 09:26:35;;;;;;;3.92;1.95;;;;;;;28.25;31.75;100280.48;1481687;93;22068;-89
2022/06/24 09:29:05;;;;;;;7.50;2.10;;;;;;;28.44;32.14;100276.75;1353229;93;21298;-89
2022/06/24 09:31:32;;;;;;;9.25;1.70;;;;;;;28.47;31.53;100281.66;1347912;93;21445;-88
2022/06/24 09:34:09;;;;;;;4.65;1.72;;;;;;;28.61;31.52;100274.59;1405592;93;21306;-88
2022/06/24 09:36:37;;;;;;;5.37;1.32;;;;;;;28.69;30.58;100275.42;1378977;93;21640;-87
2022/06/24 09:39:13;;;;;;;5.53;1.17;;;;;;;28.77;30.53;100272.67;1406068;92;21586;-88
2022/06/24 09:41:55;;;;;;;5.95;1.47;;;;;;;28.83;29.47;100268.89;1396088;93;21438;-87
2022/06/24 09:44:24;;;;;;;4.92;1.60;;;;;;;28.94;29.68;100261.51;1404866;93;21400;-88
2022/06/24 09:47:03;;;;;;;13.10;1.98;;;;;;;29.02;29.45;100266.41;1404186;93;21394;-88
2022/06/24 09:49:29;;;;;;;8.38;1.50;;;;;;;29.07;29.69;100273.25;1407336;93;21581;-85
2022/06/24 09:51:56;;;;;;;1.72;1.27;;;;;;;29.21;29.81;100264.79;1405335;93;21401;-86
2022/06/24 09:54:23;;;;;;;6.05;1.85;;;;;;;29.14;28.71;100266.96;1408209;93;22522;-86
2022/06/24 09:56:50;;;;;;;2.35;1.50;;;;;;;29.21;28.63;100251.16;1403351;93;21379;-86
2022/06/24 10:02:02;;;;;;;6.35;1.20;;;;;;;29.57;28.82;100252.41;1407997;93;21623;-87
2022/06/24 10:04:30;;;;;;;4.97;1.47;;;;;;;29.69;28.73;100249.39;1410577;93;21519;-86
2022/06/24 10:06:57;;;;;;;3.95;1.40;;;;;;;29.79;27.98;100250.73;1402180;93;22317;-87
2022/06/24 10:09:27;;;;;;;1.70;1.30;;;;;;;29.83;27.56;100249.05;1410286;93;21416;-86
2022/06/24 10:11:56;;;;;;;5.53;1.37;;;;;;;29.80;27.72;100246.89;1411030;93;21446;-89
2022/06/24 10:14:23;;;;;;;5.47;1.42;;;;;;;29.75;28.12;100239.28;1408114;92;21460;-87
2022/06/24 10:16:50;;;;;;;2.55;1.40;;;;;;;29.75;28.12;100239.28;1412558;93;21394;-87
2022/06/24 10:19:19;;;;;;;3.27;1.35;;;;;;;29.86;27.93;100237.59;1396211;93;22006;-87
2022/06/24 10:21:48;;;;;;;1.10;1.00;;;;;;;29.94;27.31;100232.66;1402451;93;21446;-85
2022/06/24 10:24:17;;;;;;;3.27;1.65;;;;;;;29.97;26.80;100232.90;1409336;92;21421;-88
2022/06/24 10:26:48;;;;;;;5.37;1.40;;;;;;;29.99;26.73;100236.17;1407197;93;21520;-87
2022/06/24 10:29:22;;;;;;;4.08;1.47;;;;;;;30.03;26.93;100231.77;1407837;93;21548;-86
2022/06/24 10:31:54;;;;;;;4.25;1.67;;;;;;;30.02;26.99;100230.70;1404279;93;21422;-86
2022/06/24 10:34:26;;;;;;;18.42;1.82;;;;;;;29.72;26.67;100226.20;1405386;93;21440;-86
2022/06/24 10:36:56;;;;;;;7.80;1.47;;;;;;;29.44;26.64;100221.12;1412925;93;21489;-87
2022/06/24 10:39:24;;;;;;;3.58;1.47;;;;;;;29.11;27.34;100226.64;1398804;93;21556;-87
2022/06/24 10:42:04;;;;;;;4.05;1.20;;;;;;;28.64;27.56;100224.23;1407502;93;21312;-87
2022/06/24 10:44:35;;;;;;;;;;;;;;;28.34;28.36;100229.91;1408855;93;21438;-87
2022/06/24 10:47:16;;;;;;;4.53;1.27;;;;;;;28.44;29.24;100226.40;1402360;93;20794;-87
2022/06/24 10:50:00;;;;;;;2.27;1.30;;;;;;;28.23;27.54;100221.45;1408389;93;21542;-87
2022/06/24 10:52:48;;;;;;;4.12;1.57;;;;;;;28.55;28.70;100218.52;1405789;93;21379;-85
2022/06/24 10:55:23;;;;;;;;;;;;;;;28.94;27.77;100219.29;1407480;93;21379;-86
2022/06/24 10:58:05;;;;;;;4.40;1.90;;;;;;;28.92;27.77;100215.49;1407737;93;20400;-87
2022/06/24 11:00:47;;;;;;;5.00;1.30;;;;;;;28.98;27.64;100202.13;1412531;92;21364;-87
2022/06/24 11:03:14;;;;;;;11.90;2.95;;;;;;;29.19;26.57;100200.20;1407441;93;21401;-87
2022/06/24 11:05:44;;;;;;;1.30;1.20;;;;;;;29.34;26.62;100202.61;1400954;93;22319;-86
2022/06/24 11:08:21;;;;;;;7.47;1.10;;;;;;;29.33;26.63;100203.72;1407193;92;21518;-87
2022/06/24 11:10:49;;;;;;;2.87;1.30;;;;;;;29.19;26.57;100196.11;1404801;92;21498;-85
2022/06/24 11:13:17;;;;;;;2.42;1.27;;;;;;;29.09;26.91;100193.44;1419701;91;21452;-86
2022/06/24 11:15:58;;;;;;;3.08;1.35;;;;;;;29.30;26.16;100196.09;1409288;92;21437;-85
2022/06/24 11:18:34;;;;;;;2.60;1.37;;;;;;;29.60;25.90;100194.59;1408360;93;21519;-87
2022/06/24 11:21:09;;;;;;;3.50;1.02;;;;;;;29.85;25.75;100195.05;1406546;92;21459;-86
2022/06/24 11:23:40;;;;;;;3.40;1.55;;;;;;;30.09;25.47;100206.08;1404065;92;22451;-86
2022/06/24 11:26:14;;;;;;;6.50;1.52;;;;;;;30.28;24.67;100194.54;1387597;94;22444;-86
2022/06/24 11:28:44;;;;;;;1.30;1.15;;;;;;;30.43;25.35;100193.59;1414322;92;21496;-87
2022/06/24 11:31:30;;;;;;;;;;;;;;;30.61;24.56;100194.81;1413705;91;21526;-86
2022/06/24 11:34:04;;;;;;;3.55;1.05;;;;;;;30.80;24.81;100190.30;1406970;92;20318;-86
2022/06/24 11:36:31;;;;;;;2.15;1.20;;;;;;;30.86;24.19;100195.16;1404584;93;21445;-87
2022/06/24 11:39:05;;;;;;;7.22;1.45;;;;;;;30.99;23.88;100189.03;1401123;93;21386;-86
2022/06/24 11:41:39;;;;;;;3.42;0.98;;;;;;;31.13;24.39;100177.66;1398982;93;21423;-88